sensor_id;sensor_type;location;lat;lon;timestamp;pressure;altitude;pressure_sealevel;temperature;humidity
75146;BME280;63641;46.526;24.612;2022-11-11T00:01:11;98442.19;;;8.55;77.10
75146;BME280;63641;46.526;24.612;2022-11-11T00:03:40;98441.63;;;8.53;77.05
75146;BME280;63641;46.526;24.612;2022-11-11T00:06:11;98441.06;;;8.51;77.34
75146;BME280;63641;46.526;24.612;2022-11-11T00:08:38;98451.59;;;8.52;77.42
75146;BME280;63641;46.526;24.612;2022-11-11T00:11:10;98449.44;;;8.54;77.36
75146;BME280;63641;46.526;24.612;2022-11-11T00:13:38;98453.81;;;8.55;77.34
75146;BME280;63641;46.526;24.612;2022-11-11T00:16:16;98452.25;;;8.59;77.35
75146;BME280;63641;46.526;24.612;2022-11-11T00:18:43;98464.47;;;8.62;77.35
75146;BME280;63641;46.526;24.612;2022-11-11T00:21:29;98455.03;;;8.64;77.19
75146;BME280;63641;46.526;24.612;2022-11-11T00:24:03;98456.44;;;8.67;77.43
75146;BME280;63641;46.526;24.612;2022-11-11T00:26:49;98456.44;;;8.67;77.21
75146;BME280;63641;46.526;24.612;2022-11-11T00:29:16;98452.69;;;8.68;77.12
75146;BME280;63641;46.526;24.612;2022-11-11T00:31:42;98453.75;;;8.67;77.22
75146;BME280;63641;46.526;24.612;2022-11-11T00:34:28;98450.81;;;8.68;77.13
75146;BME280;63641;46.526;24.612;2022-11-11T00:36:55;98447.88;;;8.70;77.32
75146;BME280;63641;46.526;24.612;2022-11-11T00:39:22;98448.22;;;8.74;77.28
75146;BME280;63641;46.526;24.612;2022-11-11T00:41:49;98451.72;;;8.74;77.31
75146;BME280;63641;46.526;24.612;2022-11-11T00:44:16;98457.69;;;8.76;77.19
75146;BME280;63641;46.526;24.612;2022-11-11T00:46:42;98451.00;;;8.79;77.06
75146;BME280;63641;46.526;24.612;2022-11-11T00:49:28;98456.19;;;8.80;77.03
75146;BME280;63641;46.526;24.612;2022-11-11T00:52:13;98452.41;;;8.81;76.99
75146;BME280;63641;46.526;24.612;2022-11-11T00:54:40;98435.16;;;8.82;77.05
75146;BME280;63641;46.526;24.612;2022-11-11T00:57:07;98440.31;;;8.84;77.09
75146;BME280;63641;46.526;24.612;2022-11-11T00:59:33;98436.78;;;8.83;77.10
75146;BME280;63641;46.526;24.612;2022-11-11T01:02:00;98435.97;;;8.83;76.83
75146;BME280;63641;46.526;24.612;2022-11-11T01:04:27;98440.88;;;8.86;77.22
75146;BME280;63641;46.526;24.612;2022-11-11T01:06:54;98433.03;;;8.84;77.15
75146;BME280;63641;46.526;24.612;2022-11-11T01:09:21;98428.19;;;8.86;76.96
75146;BME280;63641;46.526;24.612;2022-11-11T01:11:47;98442.28;;;8.88;77.13
75146;BME280;63641;46.526;24.612;2022-11-11T01:14:14;98434.41;;;8.87;77.01
75146;BME280;63641;46.526;24.612;2022-11-11T01:16:41;98435.00;;;8.89;77.24
75146;BME280;63641;46.526;24.612;2022-11-11T01:19:08;98436.88;;;8.88;76.98
75146;BME280;63641;46.526;24.612;2022-11-11T01:21:35;98425.81;;;8.90;77.16
75146;BME280;63641;46.526;24.612;2022-11-11T01:24:02;98442.63;;;8.92;76.98
75146;BME280;63641;46.526;24.612;2022-11-11T01:26:29;98443.16;;;8.94;76.67
75146;BME280;63641;46.526;24.612;2022-11-11T01:28:57;98439.44;;;8.95;77.05
75146;BME280;63641;46.526;24.612;2022-11-11T01:31:25;98441.06;;;8.96;76.99
75146;BME280;63641;46.526;24.612;2022-11-11T01:33:52;98442.69;;;8.97;77.23
75146;BME280;63641;46.526;24.612;2022-11-11T01:36:22;98443.50;;;8.98;76.78
75146;BME280;63641;46.526;24.612;2022-11-11T01:38:51;98457.59;;;9.00;76.92
75146;BME280;63641;46.526;24.612;2022-11-11T01:41:21;98451.88;;;8.96;76.96
75146;BME280;63641;46.526;24.612;2022-11-11T01:44:17;98453.75;;;8.95;77.04
75146;BME280;63641;46.526;24.612;2022-11-11T01:46:54;98450.22;;;8.95;76.90
75146;BME280;63641;46.526;24.612;2022-11-11T01:49:31;98440.25;;;8.95;76.85
75146;BME280;63641;46.526;24.612;2022-11-11T01:52:13;98452.69;;;8.97;76.93
75146;BME280;63641;46.526;24.612;2022-11-11T01:54:47;98449.16;;;8.96;76.54
75146;BME280;63641;46.526;24.612;2022-11-11T01:57:31;98445.38;;;8.97;77.06
75146;BME280;63641;46.526;24.612;2022-11-11T02:00:07;98445.66;;;8.95;76.93
75146;BME280;63641;46.526;24.612;2022-11-11T02:02:45;98429.19;;;8.97;76.84
75146;BME280;63641;46.526;24.612;2022-11-11T02:05:14;98437.28;;;8.97;76.80
75146;BME280;63641;46.526;24.612;2022-11-11T02:08:04;98432.97;;;8.96;76.93
75146;BME280;63641;46.526;24.612;2022-11-11T02:10:33;98443.50;;;8.98;76.91
75146;BME280;63641;46.526;24.612;2022-11-11T02:13:00;98443.50;;;8.98;76.88
75146;BME280;63641;46.526;24.612;2022-11-11T02:15:46;98441.88;;;8.97;76.91
75146;BME280;63641;46.526;24.612;2022-11-11T02:18:13;98448.34;;;8.95;76.94
75146;BME280;63641;46.526;24.612;2022-11-11T02:20:42;98449.38;;;8.94;76.88
75146;BME280;63641;46.526;24.612;2022-11-11T02:23:16;98450.22;;;8.95;77.04
75146;BME280;63641;46.526;24.612;2022-11-11T02:25:47;98451.03;;;8.95;77.04
75146;BME280;63641;46.526;24.612;2022-11-11T02:28:15;98445.97;;;8.99;77.04
75146;BME280;63641;46.526;24.612;2022-11-11T02:30:43;98447.63;;;9.00;77.14
75146;BME280;63641;46.526;24.612;2022-11-11T02:33:10;98450.91;;;9.02;76.90
75146;BME280;63641;46.526;24.612;2022-11-11T02:35:40;98448.19;;;9.02;77.22
75146;BME280;63641;46.526;24.612;2022-11-11T02:38:09;98464.72;;;9.06;76.89
75146;BME280;63641;46.526;24.612;2022-11-11T02:40:40;98465.78;;;9.05;76.93
75146;BME280;63641;46.526;24.612;2022-11-11T02:43:26;98462.50;;;9.03;76.97
75146;BME280;63641;46.526;24.612;2022-11-11T02:45:54;98463.56;;;9.02;77.08
75146;BME280;63641;46.526;24.612;2022-11-11T02:48:22;98466.25;;;9.02;76.76
75146;BME280;63641;46.526;24.612;2022-11-11T02:50:50;98464.13;;;9.04;76.73
75146;BME280;63641;46.526;24.612;2022-11-11T02:53:17;98462.03;;;9.06;76.90
75146;BME280;63641;46.526;24.612;2022-11-11T02:55:44;98463.66;;;9.07;77.02
75146;BME280;63641;46.526;24.612;2022-11-11T02:58:12;98471.28;;;9.10;76.94
75146;BME280;63641;46.526;24.612;2022-11-11T03:00:40;98464.81;;;9.11;76.79
75146;BME280;63641;46.526;24.612;2022-11-11T03:03:08;98465.88;;;9.10;76.90
75146;BME280;63641;46.526;24.612;2022-11-11T03:05:36;98468.91;;;9.13;76.90
75146;BME280;63641;46.526;24.612;2022-11-11T03:08:03;98478.06;;;9.12;76.93
75146;BME280;63641;46.526;24.612;2022-11-11T03:10:29;98468.91;;;9.13;76.96
75146;BME280;63641;46.526;24.612;2022-11-11T03:12:56;98469.72;;;9.14;76.90
75146;BME280;63641;46.526;24.612;2022-11-11T03:15:23;98468.06;;;9.13;76.85
75146;BME280;63641;46.526;24.612;2022-11-11T03:17:50;98468.06;;;9.13;76.84
75146;BME280;63641;46.526;24.612;2022-11-11T03:20:18;98478.88;;;9.13;77.08
75146;BME280;63641;46.526;24.612;2022-11-11T03:25:32;98476.41;;;9.11;77.05
75146;BME280;63641;46.526;24.612;2022-11-11T03:28:12;98481.81;;;9.11;77.06
75146;BME280;63641;46.526;24.612;2022-11-11T03:30:44;98482.63;;;9.12;76.98
75146;BME280;63641;46.526;24.612;2022-11-11T03:33:12;98484.84;;;9.15;77.04
75146;BME280;63641;46.526;24.612;2022-11-11T03:35:39;98480.53;;;9.14;76.93
75146;BME280;63641;46.526;24.612;2022-11-11T03:38:09;98486.47;;;9.16;77.01
75146;BME280;63641;46.526;24.612;2022-11-11T03:41:03;98479.47;;;9.15;77.16
75146;BME280;63641;46.526;24.612;2022-11-11T03:43:32;98476.16;;;9.13;77.08
75146;BME280;63641;46.526;24.612;2022-11-11T03:46:00;98482.75;;;9.17;77.04
75146;BME280;63641;46.526;24.612;2022-11-11T03:48:31;98480.59;;;9.19;77.17
75146;BME280;63641;46.526;24.612;2022-11-11T03:50:58;98483.31;;;9.19;77.14
75146;BME280;63641;46.526;24.612;2022-11-11T03:53:25;98489.78;;;9.18;77.28
75146;BME280;63641;46.526;24.612;2022-11-11T03:55:52;98488.72;;;9.19;77.23
75146;BME280;63641;46.526;24.612;2022-11-11T03:58:19;98487.06;;;9.18;77.25
75146;BME280;63641;46.526;24.612;2022-11-11T04:00:46;98486.00;;;9.19;77.30
75146;BME280;63641;46.526;24.612;2022-11-11T04:05:59;98487.16;;;9.23;77.22
75146;BME280;63641;46.526;24.612;2022-11-11T04:08:44;98495.25;;;9.23;77.25
75146;BME280;63641;46.526;24.612;2022-11-11T04:11:41;98486.09;;;9.24;77.12
75146;BME280;63641;46.526;24.612;2022-11-11T04:14:11;98493.97;;;9.26;77.22
75146;BME280;63641;46.526;24.612;2022-11-11T04:16:57;98500.44;;;9.25;77.19
75146;BME280;63641;46.526;24.612;2022-11-11T04:19:24;98496.31;;;9.22;77.55
75146;BME280;63641;46.526;24.612;2022-11-11T04:22:09;98496.31;;;9.22;77.33
75146;BME280;63641;46.526;24.612;2022-11-11T04:24:36;98495.50;;;9.22;77.35
75146;BME280;63641;46.526;24.612;2022-11-11T04:27:21;98500.09;;;9.21;77.35
75146;BME280;63641;46.526;24.612;2022-11-11T04:29:49;98503.59;;;9.22;77.39
75146;BME280;63641;46.526;24.612;2022-11-11T04:32:21;98501.47;;;9.24;77.58
75146;BME280;63641;46.526;24.612;2022-11-11T04:35:11;98510.38;;;9.24;77.40
75146;BME280;63641;46.526;24.612;2022-11-11T04:37:46;98503.34;;;9.23;77.24
75146;BME280;63641;46.526;24.612;2022-11-11T04:40:15;98507.69;;;9.24;77.49
75146;BME280;63641;46.526;24.612;2022-11-11T04:43:01;98515.78;;;9.24;77.57
75146;BME280;63641;46.526;24.612;2022-11-11T04:45:28;98510.38;;;9.24;77.53
75146;BME280;63641;46.526;24.612;2022-11-11T04:50:36;98522.25;;;9.23;77.67
75146;BME280;63641;46.526;24.612;2022-11-11T04:53:05;98522.25;;;9.23;77.62
75146;BME280;63641;46.526;24.612;2022-11-11T04:55:32;98526.03;;;9.22;77.67
75146;BME280;63641;46.526;24.612;2022-11-11T04:58:19;98528.13;;;9.20;77.60
75146;BME280;63641;46.526;24.612;2022-11-11T05:00:46;98534.38;;;9.21;77.68
75146;BME280;63641;46.526;24.612;2022-11-11T05:03:14;98534.06;;;9.17;77.62
75146;BME280;63641;46.526;24.612;2022-11-11T05:05:53;98538.03;;;9.14;77.83
75146;BME280;63641;46.526;24.612;2022-11-11T05:08:40;98535.81;;;9.11;78.05
75146;BME280;63641;46.526;24.612;2022-11-11T05:13:57;98540.16;;;9.12;77.94
75146;BME280;63641;46.526;24.612;2022-11-11T05:16:45;98540.50;;;9.16;78.05
75146;BME280;63641;46.526;24.612;2022-11-11T05:19:30;98540.75;;;9.14;78.12
75146;BME280;63641;46.526;24.612;2022-11-11T05:24:51;98546.22;;;9.19;77.89
75146;BME280;63641;46.526;24.612;2022-11-11T05:27:37;98555.16;;;9.20;77.97
75146;BME280;63641;46.526;24.612;2022-11-11T05:30:07;98550.25;;;9.17;77.96
75146;BME280;63641;46.526;24.612;2022-11-11T05:32:33;98550.13;;;9.12;78.28
75146;BME280;63641;46.526;24.612;2022-11-11T05:35:00;98555.78;;;9.10;78.16
75146;BME280;63641;46.526;24.612;2022-11-11T05:37:27;98555.53;;;9.12;78.33
75146;BME280;63641;46.526;24.612;2022-11-11T05:39:54;98559.88;;;9.13;78.28
75146;BME280;63641;46.526;24.612;2022-11-11T05:42:21;98558.25;;;9.12;78.08
75146;BME280;63641;46.526;24.612;2022-11-11T05:44:48;98562.81;;;9.11;78.19
75146;BME280;63641;46.526;24.612;2022-11-11T05:47:15;98565.28;;;9.13;78.36
75146;BME280;63641;46.526;24.612;2022-11-11T05:49:42;98571.53;;;9.13;78.51
75146;BME280;63641;46.526;24.612;2022-11-11T05:52:10;98572.34;;;9.14;78.41
75146;BME280;63641;46.526;24.612;2022-11-11T05:54:37;98586.66;;;9.14;78.51
75146;BME280;63641;46.526;24.612;2022-11-11T05:57:04;98594.75;;;9.14;78.45
75146;BME280;63641;46.526;24.612;2022-11-11T05:59:31;98590.75;;;9.17;78.54
75146;BME280;63641;46.526;24.612;2022-11-11T06:01:58;98590.97;;;9.15;78.65
75146;BME280;63641;46.526;24.612;2022-11-11T06:04:24;98601.31;;;9.18;78.74
75146;BME280;63641;46.526;24.612;2022-11-11T06:06:51;98600.25;;;9.19;78.70
75146;BME280;63641;46.526;24.612;2022-11-11T06:09:18;98600.25;;;9.19;78.60
75146;BME280;63641;46.526;24.612;2022-11-11T06:11:45;98596.50;;;9.21;78.74
75146;BME280;63641;46.526;24.612;2022-11-11T06:14:12;98604.09;;;9.24;78.61
75146;BME280;63641;46.526;24.612;2022-11-11T06:16:38;98604.91;;;9.24;78.49
75146;BME280;63641;46.526;24.612;2022-11-11T06:19:05;98610.91;;;9.26;78.70
75146;BME280;63641;46.526;24.612;2022-11-11T06:21:32;98602.53;;;9.28;78.60
75146;BME280;63641;46.526;24.612;2022-11-11T06:24:19;98598.81;;;9.29;78.54
75146;BME280;63641;46.526;24.612;2022-11-11T06:26:51;98612.41;;;9.34;78.52
75146;BME280;63641;46.526;24.612;2022-11-11T06:29:18;98616.72;;;9.35;78.69
75146;BME280;63641;46.526;24.612;2022-11-11T06:31:44;98628.38;;;9.35;78.99
75146;BME280;63641;46.526;24.612;2022-11-11T06:34:11;98632.94;;;9.35;78.77
75146;BME280;63641;46.526;24.612;2022-11-11T06:36:38;98629.41;;;9.34;78.77
75146;BME280;63641;46.526;24.612;2022-11-11T06:39:04;98635.41;;;9.36;78.87
75146;BME280;63641;46.526;24.612;2022-11-11T06:41:31;98639.53;;;9.39;79.01
75146;BME280;63641;46.526;24.612;2022-11-11T06:43:58;98639.53;;;9.39;78.86
75146;BME280;63641;46.526;24.612;2022-11-11T06:46:25;98636.56;;;9.40;78.82
75146;BME280;63641;46.526;24.612;2022-11-11T06:48:52;98641.97;;;9.40;78.88
75146;BME280;63641;46.526;24.612;2022-11-11T06:51:19;98643.03;;;9.39;78.84
75146;BME280;63641;46.526;24.612;2022-11-11T06:53:46;98655.22;;;9.42;79.09
75146;BME280;63641;46.526;24.612;2022-11-11T06:56:13;98660.06;;;9.40;79.05
75146;BME280;63641;46.526;24.612;2022-11-11T06:58:39;98667.34;;;9.39;79.21
75146;BME280;63641;46.526;24.612;2022-11-11T07:01:08;98661.59;;;9.36;78.92
75146;BME280;63641;46.526;24.612;2022-11-11T07:03:35;98670.53;;;9.36;79.25
75146;BME280;63641;46.526;24.612;2022-11-11T07:06:03;98666.53;;;9.39;79.13
75146;BME280;63641;46.526;24.612;2022-11-11T07:08:31;98671.09;;;9.38;79.20
75146;BME280;63641;46.526;24.612;2022-11-11T07:10:58;98672.75;;;9.39;79.16
75146;BME280;63641;46.526;24.612;2022-11-11T07:13:30;98677.09;;;9.40;79.15
75146;BME280;63641;46.526;24.612;2022-11-11T07:15:57;98677.66;;;9.42;79.17
75146;BME280;63641;46.526;24.612;2022-11-11T07:18:23;98680.13;;;9.44;79.17
75146;BME280;63641;46.526;24.612;2022-11-11T07:20:50;98680.94;;;9.44;79.26
75146;BME280;63641;46.526;24.612;2022-11-11T07:23:18;98695.28;;;9.45;79.29
75146;BME280;63641;46.526;24.612;2022-11-11T07:25:45;98687.16;;;9.45;79.36
75146;BME280;63641;46.526;24.612;2022-11-11T07:28:11;98689.66;;;9.47;79.21
75146;BME280;63641;46.526;24.612;2022-11-11T07:30:38;98689.88;;;9.45;79.34
75146;BME280;63641;46.526;24.612;2022-11-11T07:33:05;98682.59;;;9.46;79.20
75146;BME280;63641;46.526;24.612;2022-11-11T07:35:32;98689.31;;;9.43;79.13
75146;BME280;63641;46.526;24.612;2022-11-11T07:37:59;98694.72;;;9.43;79.22
75146;BME280;63641;46.526;24.612;2022-11-11T07:40:25;98696.34;;;9.44;79.41
75146;BME280;63641;46.526;24.612;2022-11-11T07:42:52;98701.28;;;9.47;79.31
75146;BME280;63641;46.526;24.612;2022-11-11T07:45:19;98702.19;;;9.53;79.20
75146;BME280;63641;46.526;24.612;2022-11-11T07:47:46;98703.94;;;9.59;79.19
75146;BME280;63641;46.526;24.612;2022-11-11T07:50:12;98701.78;;;9.61;79.05
75146;BME280;63641;46.526;24.612;2022-11-11T07:52:39;98694.53;;;9.61;78.91
75146;BME280;63641;46.526;24.612;2022-11-11T07:55:07;98704.59;;;9.66;78.83
75146;BME280;63641;46.526;24.612;2022-11-11T07:57:35;98707.88;;;9.68;79.00
75146;BME280;63641;46.526;24.612;2022-11-11T08:00:03;98704.13;;;9.69;78.88
75146;BME280;63641;46.526;24.612;2022-11-11T08:02:30;98704.94;;;9.70;78.94
75146;BME280;63641;46.526;24.612;2022-11-11T08:04:57;98705.75;;;9.70;78.70
75146;BME280;63641;46.526;24.612;2022-11-11T08:07:24;98699.88;;;9.73;78.80
75146;BME280;63641;46.526;24.612;2022-11-11T08:09:51;98695.03;;;9.75;78.61
75146;BME280;63641;46.526;24.612;2022-11-11T08:12:17;98694.00;;;9.76;78.51
75146;BME280;63641;46.526;24.612;2022-11-11T08:15:03;98697.94;;;9.85;78.53
75146;BME280;63641;46.526;24.612;2022-11-11T08:17:37;98702.03;;;9.88;78.47
75146;BME280;63641;46.526;24.612;2022-11-11T08:20:09;98711.56;;;9.90;78.44
75146;BME280;63641;46.526;24.612;2022-11-11T08:22:41;98714.81;;;9.92;78.46
75146;BME280;63641;46.526;24.612;2022-11-11T08:25:27;98710.47;;;9.91;78.22
75146;BME280;63641;46.526;24.612;2022-11-11T08:28:03;98711.03;;;9.93;77.96
75146;BME280;63641;46.526;24.612;2022-11-11T08:30:31;98717.59;;;9.98;77.98
75146;BME280;63641;46.526;24.612;2022-11-11T08:32:59;98717.94;;;10.01;78.07
75146;BME280;63641;46.526;24.612;2022-11-11T08:35:46;98719.44;;;10.09;77.94
75146;BME280;63641;46.526;24.612;2022-11-11T08:38:13;98712.72;;;10.11;77.76
75146;BME280;63641;46.526;24.612;2022-11-11T08:40:41;98718.47;;;10.15;77.51
75146;BME280;63641;46.526;24.612;2022-11-11T08:43:08;98723.13;;;10.20;77.38
75146;BME280;63641;46.526;24.612;2022-11-11T08:45:34;98731.13;;;10.26;77.18
75146;BME280;63641;46.526;24.612;2022-11-11T08:48:01;98728.00;;;10.34;77.21
75146;BME280;63641;46.526;24.612;2022-11-11T08:50:28;98736.22;;;10.39;76.95
75146;BME280;63641;46.526;24.612;2022-11-11T08:52:55;98729.50;;;10.42;76.89
75146;BME280;63641;46.526;24.612;2022-11-11T08:55:22;98731.47;;;10.47;76.73
75146;BME280;63641;46.526;24.612;2022-11-11T08:57:57;98734.75;;;10.49;76.88
75146;BME280;63641;46.526;24.612;2022-11-11T09:00:25;98738.50;;;10.48;76.67
75146;BME280;63641;46.526;24.612;2022-11-11T09:02:52;98740.66;;;10.46;76.82
75146;BME280;63641;46.526;24.612;2022-11-11T09:05:19;98741.16;;;10.43;76.64
75146;BME280;63641;46.526;24.612;2022-11-11T09:07:45;98757.63;;;10.41;76.54
75146;BME280;63641;46.526;24.612;2022-11-11T09:10:12;98755.72;;;10.42;76.65
75146;BME280;63641;46.526;24.612;2022-11-11T09:12:39;98751.97;;;10.43;76.42
75146;BME280;63641;46.526;24.612;2022-11-11T09:15:06;98766.16;;;10.50;76.37
75146;BME280;63641;46.526;24.612;2022-11-11T09:17:33;98760.50;;;10.51;76.41
75146;BME280;63641;46.526;24.612;2022-11-11T09:19:59;98755.69;;;10.53;76.16
75146;BME280;63641;46.526;24.612;2022-11-11T09:22:26;98764.13;;;10.57;76.45
75146;BME280;63641;46.526;24.612;2022-11-11T09:24:53;98764.69;;;10.59;76.06
75146;BME280;63641;46.526;24.612;2022-11-11T09:27:20;98772.88;;;10.64;75.97
75146;BME280;63641;46.526;24.612;2022-11-11T09:29:46;98771.56;;;10.67;75.85
75146;BME280;63641;46.526;24.612;2022-11-11T09:32:13;98772.16;;;10.69;75.67
75146;BME280;63641;46.526;24.612;2022-11-11T09:34:40;98771.56;;;10.67;75.53
75146;BME280;63641;46.526;24.612;2022-11-11T09:37:07;98769.69;;;10.67;75.49
75146;BME280;63641;46.526;24.612;2022-11-11T09:39:34;98765.94;;;10.68;75.65
75146;BME280;63641;46.526;24.612;2022-11-11T09:50:38;98769.94;;;10.66;75.67
75146;BME280;63641;46.526;24.612;2022-11-11T09:53:32;98775.91;;;10.68;75.59
75146;BME280;63641;46.526;24.612;2022-11-11T09:56:14;98774.38;;;10.72;75.70
75146;BME280;63641;46.526;24.612;2022-11-11T09:59:16;98770.09;;;10.76;75.50
75146;BME280;63641;46.526;24.612;2022-11-11T10:01:49;98776.91;;;10.78;75.52
75146;BME280;63641;46.526;24.612;2022-11-11T10:04:26;98780.19;;;10.80;75.59
75146;BME280;63641;46.526;24.612;2022-11-11T10:07:23;98783.44;;;10.82;75.59
75146;BME280;63641;46.526;24.612;2022-11-11T10:09:56;98783.78;;;10.86;75.51
75146;BME280;63641;46.526;24.612;2022-11-11T10:12:34;98777.88;;;10.89;75.54
75146;BME280;63641;46.526;24.612;2022-11-11T10:15:12;98775.16;;;10.89;75.41
75146;BME280;63641;46.526;24.612;2022-11-11T10:17:52;98770.34;;;10.91;75.24
75146;BME280;63641;46.526;24.612;2022-11-11T10:20:28;98766.81;;;10.91;75.36
75146;BME280;63641;46.526;24.612;2022-11-11T10:23:23;98768.19;;;10.93;75.27
75146;BME280;63641;46.526;24.612;2022-11-11T10:25:55;98764.91;;;10.91;75.06
75146;BME280;63641;46.526;24.612;2022-11-11T10:28:28;98759.81;;;10.95;75.30
75146;BME280;63641;46.526;24.612;2022-11-11T10:30:58;98765.56;;;10.98;75.10
75146;BME280;63641;46.526;24.612;2022-11-11T10:36:19;98763.00;;;11.08;74.92
75146;BME280;63641;46.526;24.612;2022-11-11T10:38:55;98761.19;;;11.14;74.74
75146;BME280;63641;46.526;24.612;2022-11-11T10:41:37;98762.25;;;11.13;74.54
75146;BME280;63641;46.526;24.612;2022-11-11T10:44:25;98759.88;;;11.17;74.52
75146;BME280;63641;46.526;24.612;2022-11-11T10:46:57;98753.38;;;11.18;74.39
75146;BME280;63641;46.526;24.612;2022-11-11T10:49:30;98757.97;;;11.17;74.49
75146;BME280;63641;46.526;24.612;2022-11-11T10:52:15;98748.78;;;11.18;74.30
75146;BME280;63641;46.526;24.612;2022-11-11T10:54:56;98750.94;;;11.16;74.39
75146;BME280;63641;46.526;24.612;2022-11-11T10:57:34;98747.97;;;11.18;74.40
75146;BME280;63641;46.526;24.612;2022-11-11T11:00:06;98757.47;;;11.20;74.27
75146;BME280;63641;46.526;24.612;2022-11-11T11:02:44;98751.31;;;11.25;74.22
75146;BME280;63641;46.526;24.612;2022-11-11T11:05:30;98745.94;;;11.30;74.00
75146;BME280;63641;46.526;24.612;2022-11-11T11:08:06;98745.22;;;11.34;73.80
75146;BME280;63641;46.526;24.612;2022-11-11T11:10:39;98737.94;;;11.40;73.80
75146;BME280;63641;46.526;24.612;2022-11-11T11:13:14;98742.59;;;11.45;73.66
75146;BME280;63641;46.526;24.612;2022-11-11T11:15:44;98739.97;;;11.50;73.77
75146;BME280;63641;46.526;24.612;2022-11-11T11:18:17;98735.69;;;11.54;73.77
75146;BME280;63641;46.526;24.612;2022-11-11T11:21:01;98727.88;;;11.57;73.59
75146;BME280;63641;46.526;24.612;2022-11-11T11:26:02;98727.09;;;11.62;73.09
75146;BME280;63641;46.526;24.612;2022-11-11T11:28:30;98733.66;;;11.66;73.06
75146;BME280;63641;46.526;24.612;2022-11-11T11:31:00;98730.72;;;11.68;72.94
75146;BME280;63641;46.526;24.612;2022-11-11T11:33:27;98732.06;;;11.70;72.81
75146;BME280;63641;46.526;24.612;2022-11-11T11:36:17;98735.69;;;11.76;72.74
75146;BME280;63641;46.526;24.612;2022-11-11T11:38:47;98734.91;;;11.80;72.75
75146;BME280;63641;46.526;24.612;2022-11-11T11:41:16;98724.41;;;11.84;72.63
75146;BME280;63641;46.526;24.612;2022-11-11T11:43:46;98726.34;;;11.89;72.52
75146;BME280;63641;46.526;24.612;2022-11-11T11:46:18;98721.50;;;11.91;72.23
75146;BME280;63641;46.526;24.612;2022-11-11T11:57:52;98709.69;;;11.80;72.04
75146;BME280;63641;46.526;24.612;2022-11-11T12:00:28;98712.38;;;11.80;71.63
75146;BME280;63641;46.526;24.612;2022-11-11T12:05:55;98721.19;;;11.87;71.61
75146;BME280;63641;46.526;24.612;2022-11-11T12:11:41;98724.50;;;11.94;71.20
75146;BME280;63641;46.526;24.612;2022-11-11T12:21:38;98712.69;;;12.05;71.01
75146;BME280;63641;46.526;24.612;2022-11-11T12:37:11;98722.56;;;12.17;70.90
75146;BME280;63641;46.526;24.612;2022-11-11T12:42:16;98725.56;;;12.20;70.93
75146;BME280;63641;46.526;24.612;2022-11-11T12:47:57;98731.00;;;12.20;70.70
75146;BME280;63641;46.526;24.612;2022-11-11T12:50:42;98730.19;;;12.20;70.82
75146;BME280;63641;46.526;24.612;2022-11-11T12:58:59;98722.03;;;12.20;70.52
75146;BME280;63641;46.526;24.612;2022-11-11T13:01:50;98729.09;;;12.21;70.43
75146;BME280;63641;46.526;24.612;2022-11-11T13:05:04;98722.03;;;12.20;70.37
75146;BME280;63641;46.526;24.612;2022-11-11T13:10:18;98719.06;;;12.21;70.13
75146;BME280;63641;46.526;24.612;2022-11-11T13:15:36;98731.28;;;12.19;70.32
75146;BME280;63641;46.526;24.612;2022-11-11T13:18:10;98724.50;;;12.21;70.20
75146;BME280;63641;46.526;24.612;2022-11-11T13:20:55;98721.84;;;12.26;70.30
75146;BME280;63641;46.526;24.612;2022-11-11T13:23:23;98718.84;;;12.28;70.03
75146;BME280;63641;46.526;24.612;2022-11-11T13:25:55;98725.09;;;12.28;69.93
75146;BME280;63641;46.526;24.612;2022-11-11T13:28:35;98725.41;;;12.32;69.80
75146;BME280;63641;46.526;24.612;2022-11-11T13:31:12;98727.88;;;12.33;69.87
75146;BME280;63641;46.526;24.612;2022-11-11T13:33:46;98729.22;;;12.36;69.52
75146;BME280;63641;46.526;24.612;2022-11-11T13:36:16;98728.19;;;12.37;69.27
75146;BME280;63641;46.526;24.612;2022-11-11T13:38:57;98734.41;;;12.38;69.42
75146;BME280;63641;46.526;24.612;2022-11-11T13:41:28;98723.00;;;12.36;69.50
75146;BME280;63641;46.526;24.612;2022-11-11T13:43:57;98728.41;;;12.36;69.61
75146;BME280;63641;46.526;24.612;2022-11-11T13:46:38;98738.72;;;12.33;69.91
75146;BME280;63641;46.526;24.612;2022-11-11T13:51:59;98742.47;;;12.27;70.19
75146;BME280;63641;46.526;24.612;2022-11-11T13:54:33;98734.84;;;12.24;70.40
75146;BME280;63641;46.526;24.612;2022-11-11T13:57:05;98747.81;;;12.22;70.58
75146;BME280;63641;46.526;24.612;2022-11-11T13:59:37;98745.66;;;12.19;70.84
75146;BME280;63641;46.526;24.612;2022-11-11T14:12:54;98747.06;;;12.00;71.42
75146;BME280;63641;46.526;24.612;2022-11-11T14:18:34;98742.81;;;11.82;71.51
75146;BME280;63641;46.526;24.612;2022-11-11T14:21:02;98745.63;;;11.70;71.43
75146;BME280;63641;46.526;24.612;2022-11-11T14:23:40;98749.06;;;11.60;71.47
75146;BME280;63641;46.526;24.612;2022-11-11T14:28:58;98749.59;;;11.41;71.52
75146;BME280;63641;46.526;24.612;2022-11-11T14:31:45;98754.34;;;11.28;71.51
75146;BME280;63641;46.526;24.612;2022-11-11T14:34:43;98737.44;;;11.21;71.54
75146;BME280;63641;46.526;24.612;2022-11-11T14:37:22;98747.63;;;11.14;71.50
75146;BME280;63641;46.526;24.612;2022-11-11T14:39:54;98742.06;;;11.04;71.47
75146;BME280;63641;46.526;24.612;2022-11-11T14:42:44;98734.88;;;10.93;71.49
75146;BME280;63641;46.526;24.612;2022-11-11T14:47:57;98748.13;;;10.72;71.62
75146;BME280;63641;46.526;24.612;2022-11-11T14:52:54;98743.50;;;10.56;71.70
75146;BME280;63641;46.526;24.612;2022-11-11T14:55:46;98752.63;;;10.50;71.83
75146;BME280;63641;46.526;24.612;2022-11-11T14:58:17;98744.91;;;10.42;71.98
75146;BME280;63641;46.526;24.612;2022-11-11T15:00:50;98741.88;;;10.38;72.13
75146;BME280;63641;46.526;24.612;2022-11-11T15:03:30;98735.78;;;10.31;72.15
75146;BME280;63641;46.526;24.612;2022-11-11T15:06:16;98737.25;;;10.22;72.23
75146;BME280;63641;46.526;24.612;2022-11-11T15:09:29;98730.56;;;10.12;72.33